sensor_id;sensor_type;location;lat;lon;timestamp;temperature;humidity
18047;DHT22;9148;51.454;13.862;2022-11-06T00:01:11;1.80;99.90
18047;DHT22;9148;51.454;13.862;2022-11-06T00:03:40;1.70;99.90
18047;DHT22;9148;51.454;13.862;2022-11-06T00:06:10;1.70;99.90
18047;DHT22;9148;51.454;13.862;2022-11-06T00:08:58;2.40;99.90
18047;DHT22;9148;51.454;13.862;2022-11-06T00:11:24;1.80;99.90
18047;DHT22;9148;51.454;13.862;2022-11-06T00:13:50;1.60;99.90
18047;DHT22;9148;51.454;13.862;2022-11-06T00:16:18;1.60;99.90
18047;DHT22;9148;51.454;13.862;2022-11-06T00:18:44;1.60;99.90
18047;DHT22;9148;51.454;13.862;2022-11-06T00:21:30;1.60;99.90
18047;DHT22;9148;51.454;13.862;2022-11-06T00:23:58;1.60;99.90
18047;DHT22;9148;51.454;13.862;2022-11-06T00:26:26;1.60;99.90
18047;DHT22;9148;51.454;13.862;2022-11-06T00:28:54;1.60;99.90
18047;DHT22;9148;51.454;13.862;2022-11-06T00:31:26;1.50;99.90
18047;DHT22;9148;51.454;13.862;2022-11-06T00:33:54;1.50;99.90
18047;DHT22;9148;51.454;13.862;2022-11-06T00:36:22;1.50;99.90
18047;DHT22;9148;51.454;13.862;2022-11-06T00:38:53;1.50;99.90
18047;DHT22;9148;51.454;13.862;2022-11-06T00:41:20;1.60;99.90
18047;DHT22;9148;51.454;13.862;2022-11-06T00:43:51;1.50;99.90
18047;DHT22;9148;51.454;13.862;2022-11-06T00:46:19;1.50;99.90
18047;DHT22;9148;51.454;13.862;2022-11-06T00:48:46;1.50;99.90
18047;DHT22;9148;51.454;13.862;2022-11-06T00:51:13;1.60;99.90
18047;DHT22;9148;51.454;13.862;2022-11-06T00:53:40;1.50;99.90
18047;DHT22;9148;51.454;13.862;2022-11-06T00:56:11;1.50;99.90
18047;DHT22;9148;51.454;13.862;2022-11-06T00:58:38;1.50;99.90
18047;DHT22;9148;51.454;13.862;2022-11-06T01:01:08;1.50;99.90
18047;DHT22;9148;51.454;13.862;2022-11-06T01:03:36;1.40;99.90
18047;DHT22;9148;51.454;13.862;2022-11-06T01:06:08;1.40;99.90
18047;DHT22;9148;51.454;13.862;2022-11-06T01:08:38;1.50;99.90
18047;DHT22;9148;51.454;13.862;2022-11-06T01:13:40;1.40;99.90
18047;DHT22;9148;51.454;13.862;2022-11-06T01:16:08;1.40;99.90
18047;DHT22;9148;51.454;13.862;2022-11-06T01:18:35;1.40;99.90
18047;DHT22;9148;51.454;13.862;2022-11-06T01:21:06;1.30;99.90
18047;DHT22;9148;51.454;13.862;2022-11-06T01:23:33;1.30;99.90
18047;DHT22;9148;51.454;13.862;2022-11-06T01:26:00;1.30;99.90
18047;DHT22;9148;51.454;13.862;2022-11-06T01:28:27;2.00;99.90
18047;DHT22;9148;51.454;13.862;2022-11-06T01:30:54;1.30;99.90
18047;DHT22;9148;51.454;13.862;2022-11-06T01:33:20;1.20;99.90
18047;DHT22;9148;51.454;13.862;2022-11-06T01:35:50;1.20;99.90
18047;DHT22;9148;51.454;13.862;2022-11-06T01:38:16;1.20;99.90
18047;DHT22;9148;51.454;13.862;2022-11-06T01:40:47;1.30;99.90
18047;DHT22;9148;51.454;13.862;2022-11-06T01:43:18;1.30;99.90
18047;DHT22;9148;51.454;13.862;2022-11-06T01:45:54;1.20;99.90
18047;DHT22;9148;51.454;13.862;2022-11-06T01:48:25;1.30;99.90
18047;DHT22;9148;51.454;13.862;2022-11-06T01:50:54;1.20;99.90
18047;DHT22;9148;51.454;13.862;2022-11-06T01:53:21;1.20;99.90
18047;DHT22;9148;51.454;13.862;2022-11-06T01:55:52;1.20;99.90
18047;DHT22;9148;51.454;13.862;2022-11-06T01:58:21;1.20;99.90
18047;DHT22;9148;51.454;13.862;2022-11-06T02:00:49;1.20;99.90
18047;DHT22;9148;51.454;13.862;2022-11-06T02:03:15;1.20;99.90
18047;DHT22;9148;51.454;13.862;2022-11-06T02:05:41;1.20;99.90
18047;DHT22;9148;51.454;13.862;2022-11-06T02:08:10;1.20;99.90
18047;DHT22;9148;51.454;13.862;2022-11-06T02:10:38;1.30;99.90
18047;DHT22;9148;51.454;13.862;2022-11-06T02:13:20;1.20;99.90
18047;DHT22;9148;51.454;13.862;2022-11-06T02:25:12;1.20;99.90
18047;DHT22;9148;51.454;13.862;2022-11-06T02:28:19;1.20;99.90
18047;DHT22;9148;51.454;13.862;2022-11-06T02:31:02;1.10;99.90
18047;DHT22;9148;51.454;13.862;2022-11-06T02:33:35;1.20;99.90
18047;DHT22;9148;51.454;13.862;2022-11-06T02:36:13;1.20;99.90
18047;DHT22;9148;51.454;13.862;2022-11-06T02:38:49;1.30;99.90
18047;DHT22;9148;51.454;13.862;2022-11-06T02:41:34;1.20;99.90
18047;DHT22;9148;51.454;13.862;2022-11-06T02:44:05;1.20;99.90
18047;DHT22;9148;51.454;13.862;2022-11-06T02:46:38;1.20;99.90
18047;DHT22;9148;51.454;13.862;2022-11-06T02:49:13;1.20;99.90
18047;DHT22;9148;51.454;13.862;2022-11-06T02:51:49;1.20;99.90
18047;DHT22;9148;51.454;13.862;2022-11-06T02:54:19;1.10;99.90
18047;DHT22;9148;51.454;13.862;2022-11-06T02:56:49;1.20;99.90
18047;DHT22;9148;51.454;13.862;2022-11-06T02:59:29;1.20;99.90
18047;DHT22;9148;51.454;13.862;2022-11-06T03:02:05;1.20;99.90
18047;DHT22;9148;51.454;13.862;2022-11-06T03:04:57;1.20;99.90
18047;DHT22;9148;51.454;13.862;2022-11-06T03:07:43;1.30;99.90
18047;DHT22;9148;51.454;13.862;2022-11-06T03:10:15;1.30;99.90
18047;DHT22;9148;51.454;13.862;2022-11-06T03:15:38;1.30;99.90
18047;DHT22;9148;51.454;13.862;2022-11-06T03:20:59;1.30;99.90
18047;DHT22;9148;51.454;13.862;2022-11-06T03:23:33;1.20;99.90
18047;DHT22;9148;51.454;13.862;2022-11-06T03:26:25;1.20;99.90
18047;DHT22;9148;51.454;13.862;2022-11-06T03:31:53;1.20;99.90
18047;DHT22;9148;51.454;13.862;2022-11-06T03:34:29;1.20;99.90
18047;DHT22;9148;51.454;13.862;2022-11-06T03:37:06;1.20;99.90
18047;DHT22;9148;51.454;13.862;2022-11-06T03:39:40;1.10;99.90
18047;DHT22;9148;51.454;13.862;2022-11-06T03:42:14;1.10;99.90
18047;DHT22;9148;51.454;13.862;2022-11-06T03:44:48;1.00;99.90
18047;DHT22;9148;51.454;13.862;2022-11-06T03:47:24;1.20;99.90
18047;DHT22;9148;51.454;13.862;2022-11-06T03:49:58;1.10;99.90
18047;DHT22;9148;51.454;13.862;2022-11-06T03:52:35;1.00;99.90
18047;DHT22;9148;51.454;13.862;2022-11-06T03:55:16;1.00;99.90
18047;DHT22;9148;51.454;13.862;2022-11-06T04:00:19;1.00;99.90
18047;DHT22;9148;51.454;13.862;2022-11-06T04:02:51;0.90;99.90
18047;DHT22;9148;51.454;13.862;2022-11-06T04:05:34;1.00;99.90
18047;DHT22;9148;51.454;13.862;2022-11-06T04:08:03;0.90;99.90
18047;DHT22;9148;51.454;13.862;2022-11-06T04:10:51;0.90;99.90
18047;DHT22;9148;51.454;13.862;2022-11-06T04:13:51;0.90;99.90
18047;DHT22;9148;51.454;13.862;2022-11-06T04:16:27;0.90;99.90
18047;DHT22;9148;51.454;13.862;2022-11-06T04:18:56;0.90;99.90
18047;DHT22;9148;51.454;13.862;2022-11-06T04:21:32;0.90;99.90
18047;DHT22;9148;51.454;13.862;2022-11-06T04:27:47;1.10;99.90
18047;DHT22;9148;51.454;13.862;2022-11-06T04:30:15;0.80;99.90
18047;DHT22;9148;51.454;13.862;2022-11-06T04:38:48;0.80;99.90
18047;DHT22;9148;51.454;13.862;2022-11-06T04:41:33;0.80;99.90
18047;DHT22;9148;51.454;13.862;2022-11-06T04:46:47;0.70;99.90
18047;DHT22;9148;51.454;13.862;2022-11-06T04:49:28;0.80;99.90
18047;DHT22;9148;51.454;13.862;2022-11-06T04:51:56;0.70;99.90
18047;DHT22;9148;51.454;13.862;2022-11-06T04:54:22;0.70;99.90
18047;DHT22;9148;51.454;13.862;2022-11-06T04:56:49;0.60;99.90
18047;DHT22;9148;51.454;13.862;2022-11-06T04:59:16;0.60;99.90
18047;DHT22;9148;51.454;13.862;2022-11-06T05:01:43;0.70;99.90
18047;DHT22;9148;51.454;13.862;2022-11-06T05:04:10;0.70;99.90
18047;DHT22;9148;51.454;13.862;2022-11-06T05:06:36;0.50;99.90
18047;DHT22;9148;51.454;13.862;2022-11-06T05:09:02;0.60;99.90
18047;DHT22;9148;51.454;13.862;2022-11-06T05:11:28;0.60;99.90
18047;DHT22;9148;51.454;13.862;2022-11-06T05:13:54;0.90;99.90
18047;DHT22;9148;51.454;13.862;2022-11-06T05:16:19;0.70;99.90
18047;DHT22;9148;51.454;13.862;2022-11-06T05:18:45;0.80;99.90
18047;DHT22;9148;51.454;13.862;2022-11-06T05:21:11;0.90;99.90
18047;DHT22;9148;51.454;13.862;2022-11-06T05:23:55;0.80;99.90
18047;DHT22;9148;51.454;13.862;2022-11-06T05:26:21;1.00;99.90
18047;DHT22;9148;51.454;13.862;2022-11-06T05:28:46;0.90;99.90
18047;DHT22;9148;51.454;13.862;2022-11-06T05:31:12;0.90;99.90
18047;DHT22;9148;51.454;13.862;2022-11-06T05:33:38;0.90;99.90
18047;DHT22;9148;51.454;13.862;2022-11-06T05:36:04;0.90;99.90
18047;DHT22;9148;51.454;13.862;2022-11-06T05:38:31;0.90;99.90
18047;DHT22;9148;51.454;13.862;2022-11-06T05:40:57;0.80;99.90
18047;DHT22;9148;51.454;13.862;2022-11-06T05:43:23;0.80;99.90
18047;DHT22;9148;51.454;13.862;2022-11-06T05:45:49;1.50;99.90
18047;DHT22;9148;51.454;13.862;2022-11-06T05:48:15;0.80;99.90
18047;DHT22;9148;51.454;13.862;2022-11-06T05:50:40;0.70;99.90
18047;DHT22;9148;51.454;13.862;2022-11-06T05:53:06;0.90;99.90
18047;DHT22;9148;51.454;13.862;2022-11-06T05:55:32;0.90;99.90
18047;DHT22;9148;51.454;13.862;2022-11-06T05:57:57;1.00;99.90
18047;DHT22;9148;51.454;13.862;2022-11-06T06:00:23;1.00;99.90
18047;DHT22;9148;51.454;13.862;2022-11-06T06:02:49;1.20;99.90
18047;DHT22;9148;51.454;13.862;2022-11-06T06:05:15;1.30;99.90
18047;DHT22;9148;51.454;13.862;2022-11-06T06:07:41;1.40;99.90
18047;DHT22;9148;51.454;13.862;2022-11-06T06:10:08;1.40;99.90
18047;DHT22;9148;51.454;13.862;2022-11-06T06:12:34;1.40;99.90
18047;DHT22;9148;51.454;13.862;2022-11-06T06:15:00;2.00;99.90
18047;DHT22;9148;51.454;13.862;2022-11-06T06:17:26;1.40;99.90
18047;DHT22;9148;51.454;13.862;2022-11-06T06:19:52;0.70;99.90
18047;DHT22;9148;51.454;13.862;2022-11-06T06:22:17;1.30;99.90
18047;DHT22;9148;51.454;13.862;2022-11-06T06:24:43;1.30;99.90
18047;DHT22;9148;51.454;13.862;2022-11-06T06:27:09;1.20;99.90
18047;DHT22;9148;51.454;13.862;2022-11-06T06:29:34;1.20;99.90
18047;DHT22;9148;51.454;13.862;2022-11-06T06:32:00;1.20;99.90
18047;DHT22;9148;51.454;13.862;2022-11-06T06:34:26;1.10;99.90
18047;DHT22;9148;51.454;13.862;2022-11-06T06:36:52;1.30;99.90
18047;DHT22;9148;51.454;13.862;2022-11-06T06:39:19;1.40;99.90
18047;DHT22;9148;51.454;13.862;2022-11-06T06:41:46;2.00;99.90
18047;DHT22;9148;51.454;13.862;2022-11-06T06:44:12;1.70;99.90
18047;DHT22;9148;51.454;13.862;2022-11-06T06:46:38;1.90;99.90
18047;DHT22;9148;51.454;13.862;2022-11-06T06:49:04;2.00;99.90
18047;DHT22;9148;51.454;13.862;2022-11-06T06:51:30;2.10;99.90
18047;DHT22;9148;51.454;13.862;2022-11-06T06:53:56;2.30;99.90
18047;DHT22;9148;51.454;13.862;2022-11-06T06:56:21;2.50;99.90
18047;DHT22;9148;51.454;13.862;2022-11-06T06:58:47;2.70;99.90
18047;DHT22;9148;51.454;13.862;2022-11-06T07:01:13;3.00;99.90
18047;DHT22;9148;51.454;13.862;2022-11-06T07:03:39;3.30;99.90
18047;DHT22;9148;51.454;13.862;2022-11-06T07:06:05;3.60;99.90
18047;DHT22;9148;51.454;13.862;2022-11-06T07:08:32;3.70;99.90
18047;DHT22;9148;51.454;13.862;2022-11-06T07:11:06;4.10;99.90
18047;DHT22;9148;51.454;13.862;2022-11-06T07:13:33;4.30;99.90
18047;DHT22;9148;51.454;13.862;2022-11-06T07:16:05;4.50;99.90
18047;DHT22;9148;51.454;13.862;2022-11-06T07:18:32;4.80;99.90
18047;DHT22;9148;51.454;13.862;2022-11-06T07:20:58;5.10;99.90
18047;DHT22;9148;51.454;13.862;2022-11-06T07:23:24;5.40;99.90
18047;DHT22;9148;51.454;13.862;2022-11-06T07:25:53;5.50;99.90
18047;DHT22;9148;51.454;13.862;2022-11-06T07:28:19;5.90;99.90
18047;DHT22;9148;51.454;13.862;2022-11-06T07:30:45;6.20;99.90
18047;DHT22;9148;51.454;13.862;2022-11-06T07:33:11;6.50;99.90
18047;DHT22;9148;51.454;13.862;2022-11-06T07:35:36;6.90;99.90
18047;DHT22;9148;51.454;13.862;2022-11-06T07:38:04;7.50;99.90
18047;DHT22;9148;51.454;13.862;2022-11-06T07:40:31;7.30;99.90
18047;DHT22;9148;51.454;13.862;2022-11-06T07:43:08;7.60;99.90
18047;DHT22;9148;51.454;13.862;2022-11-06T07:45:36;8.20;99.90
18047;DHT22;9148;51.454;13.862;2022-11-06T07:48:03;8.10;99.90
18047;DHT22;9148;51.454;13.862;2022-11-06T07:50:29;8.40;99.90
18047;DHT22;9148;51.454;13.862;2022-11-06T07:52:55;8.60;99.90
18047;DHT22;9148;51.454;13.862;2022-11-06T07:55:21;8.80;99.90
18047;DHT22;9148;51.454;13.862;2022-11-06T07:57:47;9.00;99.90
18047;DHT22;9148;51.454;13.862;2022-11-06T08:00:13;9.20;99.90
18047;DHT22;9148;51.454;13.862;2022-11-06T08:02:39;9.30;99.90
18047;DHT22;9148;51.454;13.862;2022-11-06T08:05:05;9.40;99.90
18047;DHT22;9148;51.454;13.862;2022-11-06T08:07:31;9.60;99.90
18047;DHT22;9148;51.454;13.862;2022-11-06T08:09:57;9.70;99.90
18047;DHT22;9148;51.454;13.862;2022-11-06T08:12:22;9.80;99.90
18047;DHT22;9148;51.454;13.862;2022-11-06T08:14:48;10.00;99.90
18047;DHT22;9148;51.454;13.862;2022-11-06T08:17:14;10.20;99.90
18047;DHT22;9148;51.454;13.862;2022-11-06T08:19:39;10.40;99.90
18047;DHT22;9148;51.454;13.862;2022-11-06T08:22:05;10.60;99.90
18047;DHT22;9148;51.454;13.862;2022-11-06T08:24:31;10.80;99.90
18047;DHT22;9148;51.454;13.862;2022-11-06T08:26:56;10.90;99.90
18047;DHT22;9148;51.454;13.862;2022-11-06T08:29:23;11.10;99.90
18047;DHT22;9148;51.454;13.862;2022-11-06T08:31:49;11.30;99.90
18047;DHT22;9148;51.454;13.862;2022-11-06T08:34:14;11.40;99.90
18047;DHT22;9148;51.454;13.862;2022-11-06T08:36:43;11.50;99.90
18047;DHT22;9148;51.454;13.862;2022-11-06T08:39:10;11.60;99.90
18047;DHT22;9148;51.454;13.862;2022-11-06T08:41:40;11.80;99.90
18047;DHT22;9148;51.454;13.862;2022-11-06T08:44:06;12.00;99.90
18047;DHT22;9148;51.454;13.862;2022-11-06T08:46:32;12.10;99.90
18047;DHT22;9148;51.454;13.862;2022-11-06T08:48:57;12.20;99.90
18047;DHT22;9148;51.454;13.862;2022-11-06T08:51:23;12.30;99.90
18047;DHT22;9148;51.454;13.862;2022-11-06T08:53:49;12.40;99.90
18047;DHT22;9148;51.454;13.862;2022-11-06T08:56:15;12.40;99.90
18047;DHT22;9148;51.454;13.862;2022-11-06T08:58:41;12.50;99.90
18047;DHT22;9148;51.454;13.862;2022-11-06T09:01:06;12.70;99.90
18047;DHT22;9148;51.454;13.862;2022-11-06T09:03:32;13.30;99.90
18047;DHT22;9148;51.454;13.862;2022-11-06T09:05:58;12.90;99.90
18047;DHT22;9148;51.454;13.862;2022-11-06T09:08:24;13.20;99.90
18047;DHT22;9148;51.454;13.862;2022-11-06T09:10:50;13.30;99.90
18047;DHT22;9148;51.454;13.862;2022-11-06T09:13:16;13.30;99.90
18047;DHT22;9148;51.454;13.862;2022-11-06T09:15:42;13.30;99.90
18047;DHT22;9148;51.454;13.862;2022-11-06T09:18:07;13.50;99.90
18047;DHT22;9148;51.454;13.862;2022-11-06T09:20:33;13.50;99.90
18047;DHT22;9148;51.454;13.862;2022-11-06T09:23:00;13.50;99.90
18047;DHT22;9148;51.454;13.862;2022-11-06T09:25:28;13.50;99.90
18047;DHT22;9148;51.454;13.862;2022-11-06T09:27:54;13.40;99.50
18047;DHT22;9148;51.454;13.862;2022-11-06T09:30:21;13.50;98.10
18047;DHT22;9148;51.454;13.862;2022-11-06T09:32:56;13.40;98.50
18047;DHT22;9148;51.454;13.862;2022-11-06T09:35:25;13.50;98.30
18047;DHT22;9148;51.454;13.862;2022-11-06T09:37:52;13.60;98.10
18047;DHT22;9148;51.454;13.862;2022-11-06T09:46:21;13.90;95.80
18047;DHT22;9148;51.454;13.862;2022-11-06T09:54:26;14.40;93.30
18047;DHT22;9148;51.454;13.862;2022-11-06T09:56:59;14.40;93.90
18047;DHT22;9148;51.454;13.862;2022-11-06T09:59:28;14.60;93.80
18047;DHT22;9148;51.454;13.862;2022-11-06T10:01:59;14.70;92.70
18047;DHT22;9148;51.454;13.862;2022-11-06T10:04:48;14.80;91.90
18047;DHT22;9148;51.454;13.862;2022-11-06T10:07:28;14.90;91.60
18047;DHT22;9148;51.454;13.862;2022-11-06T10:09:55;14.80;88.30
18047;DHT22;9148;51.454;13.862;2022-11-06T10:17:50;15.00;86.70
18047;DHT22;9148;51.454;13.862;2022-11-06T10:23:18;15.10;83.10
18047;DHT22;9148;51.454;13.862;2022-11-06T10:26:11;15.10;82.40
18047;DHT22;9148;51.454;13.862;2022-11-06T10:34:56;15.20;81.00
18047;DHT22;9148;51.454;13.862;2022-11-06T10:37:49;15.40;81.90
18047;DHT22;9148;51.454;13.862;2022-11-06T10:45:55;15.80;78.00
18047;DHT22;9148;51.454;13.862;2022-11-06T10:48:29;15.90;75.40
18047;DHT22;9148;51.454;13.862;2022-11-06T10:51:26;15.90;75.70
18047;DHT22;9148;51.454;13.862;2022-11-06T10:59:33;16.10;72.70
18047;DHT22;9148;51.454;13.862;2022-11-06T11:02:00;16.30;72.40
18047;DHT22;9148;51.454;13.862;2022-11-06T11:04:26;16.40;71.00
18047;DHT22;9148;51.454;13.862;2022-11-06T11:06:52;16.40;69.10
18047;DHT22;9148;51.454;13.862;2022-11-06T11:09:31;16.40;68.40
18047;DHT22;9148;51.454;13.862;2022-11-06T11:11:58;16.20;65.70
18047;DHT22;9148;51.454;13.862;2022-11-06T11:14:31;16.10;66.80
18047;DHT22;9148;51.454;13.862;2022-11-06T11:17:00;16.00;67.60
18047;DHT22;9148;51.454;13.862;2022-11-06T11:19:36;16.00;68.50
18047;DHT22;9148;51.454;13.862;2022-11-06T11:22:21;16.10;69.00
18047;DHT22;9148;51.454;13.862;2022-11-06T11:25:05;16.30;67.10
18047;DHT22;9148;51.454;13.862;2022-11-06T11:27:41;16.50;68.20
18047;DHT22;9148;51.454;13.862;2022-11-06T11:30:22;16.60;66.60
18047;DHT22;9148;51.454;13.862;2022-11-06T11:32:55;16.70;64.70
18047;DHT22;9148;51.454;13.862;2022-11-06T11:35:29;16.80;65.40
18047;DHT22;9148;51.454;13.862;2022-11-06T11:38:13;17.00;65.00
18047;DHT22;9148;51.454;13.862;2022-11-06T11:40:40;17.00;64.40
18047;DHT22;9148;51.454;13.862;2022-11-06T11:43:26;17.10;63.50
18047;DHT22;9148;51.454;13.862;2022-11-06T11:49:00;16.90;60.70
18047;DHT22;9148;51.454;13.862;2022-11-06T11:54:06;16.80;63.80
18047;DHT22;9148;51.454;13.862;2022-11-06T11:59:31;17.20;63.80
18047;DHT22;9148;51.454;13.862;2022-11-06T12:02:11;17.30;63.60
18047;DHT22;9148;51.454;13.862;2022-11-06T12:04:43;17.40;61.50
18047;DHT22;9148;51.454;13.862;2022-11-06T12:07:31;17.50;61.30
18047;DHT22;9148;51.454;13.862;2022-11-06T12:09:58;17.40;60.00
18047;DHT22;9148;51.454;13.862;2022-11-06T12:12:35;17.40;60.60
18047;DHT22;9148;51.454;13.862;2022-11-06T12:15:26;17.40;60.80
18047;DHT22;9148;51.454;13.862;2022-11-06T12:18:04;17.40;60.90
18047;DHT22;9148;51.454;13.862;2022-11-06T12:20:56;17.40;60.30
18047;DHT22;9148;51.454;13.862;2022-11-06T12:23:45;17.50;59.90
18047;DHT22;9148;51.454;13.862;2022-11-06T12:31:57;17.40;58.90
18047;DHT22;9148;51.454;13.862;2022-11-06T12:34:30;17.30;58.10
18047;DHT22;9148;51.454;13.862;2022-11-06T12:43:49;17.30;58.90
18047;DHT22;9148;51.454;13.862;2022-11-06T12:52:23;17.00;58.90
18047;DHT22;9148;51.454;13.862;2022-11-06T12:55:33;17.20;59.10
18047;DHT22;9148;51.454;13.862;2022-11-06T12:58:29;17.20;59.00
18047;DHT22;9148;51.454;13.862;2022-11-06T13:04:27;17.30;59.00
18047;DHT22;9148;51.454;13.862;2022-11-06T13:07:22;17.30;58.30
18047;DHT22;9148;51.454;13.862;2022-11-06T13:10:18;17.30;57.80
18047;DHT22;9148;51.454;13.862;2022-11-06T13:16:32;17.40;57.80
18047;DHT22;9148;51.454;13.862;2022-11-06T13:27:25;17.50;59.60
18047;DHT22;9148;51.454;13.862;2022-11-06T13:30:04;17.60;59.60
18047;DHT22;9148;51.454;13.862;2022-11-06T13:32:38;17.60;58.40
18047;DHT22;9148;51.454;13.862;2022-11-06T13:35:05;17.50;58.70
18047;DHT22;9148;51.454;13.862;2022-11-06T13:37:40;17.40;58.40
18047;DHT22;9148;51.454;13.862;2022-11-06T13:40:19;17.30;58.70
18047;DHT22;9148;51.454;13.862;2022-11-06T13:43:04;17.20;58.80
18047;DHT22;9148;51.454;13.862;2022-11-06T13:45:45;17.00;59.30
18047;DHT22;9148;51.454;13.862;2022-11-06T13:48:26;16.90;59.00
18047;DHT22;9148;51.454;13.862;2022-11-06T13:51:13;16.70;58.90
18047;DHT22;9148;51.454;13.862;2022-11-06T13:53:59;16.40;59.60
18047;DHT22;9148;51.454;13.862;2022-11-06T13:59:39;16.10;60.40
18047;DHT22;9148;51.454;13.862;2022-11-06T14:02:35;15.90;61.40
18047;DHT22;9148;51.454;13.862;2022-11-06T14:08:18;15.10;62.70
18047;DHT22;9148;51.454;13.862;2022-11-06T14:10:51;14.60;63.80
18047;DHT22;9148;51.454;13.862;2022-11-06T14:13:24;14.30;64.80
18047;DHT22;9148;51.454;13.862;2022-11-06T14:15:59;14.10;65.80
18047;DHT22;9148;51.454;13.862;2022-11-06T14:18:37;13.80;66.70
18047;DHT22;9148;51.454;13.862;2022-11-06T14:24:13;13.40;68.30
18047;DHT22;9148;51.454;13.862;2022-11-06T14:27:02;13.20;69.30
18047;DHT22;9148;51.454;13.862;2022-11-06T14:29:42;13.00;70.10
18047;DHT22;9148;51.454;13.862;2022-11-06T14:34:44;12.70;72.00
18047;DHT22;9148;51.454;13.862;2022-11-06T14:40:02;12.50;73.50
18047;DHT22;9148;51.454;13.862;2022-11-06T14:42:42;12.30;74.50
18047;DHT22;9148;51.454;13.862;2022-11-06T14:45:21;12.30;75.80
18047;DHT22;9148;51.454;13.862;2022-11-06T14:52:49;12.00;80.50
18047;DHT22;9148;51.454;13.862;2022-11-06T14:55:41;11.90;82.00
18047;DHT22;9148;51.454;13.862;2022-11-06T14:58:24;11.70;84.50
18047;DHT22;9148;51.454;13.862;2022-11-06T15:00:59;11.50;87.10
18047;DHT22;9148;51.454;13.862;2022-11-06T15:03:44;11.40;88.90
18047;DHT22;9148;51.454;13.862;2022-11-06T15:19:15;10.40;95.00
18047;DHT22;9148;51.454;13.862;2022-11-06T15:21:49;10.20;96.00
18047;DHT22;9148;51.454;13.862;2022-11-06T15:24:33;10.10;96.60
18047;DHT22;9148;51.454;13.862;2022-11-06T15:27:14;10.00;98.10
18047;DHT22;9148;51.454;13.862;2022-11-06T15:29:44;9.80;99.30
18047;DHT22;9148;51.454;13.862;2022-11-06T15:32:14;9.70;99.80
18047;DHT22;9148;51.454;13.862;2022-11-06T15:34:53;9.60;99.90
18047;DHT22;9148;51.454;13.862;2022-11-06T15:37:30;9.40;99.90
18047;DHT22;9148;51.454;13.862;2022-11-06T15:39:59;9.30;99.90
18047;DHT22;9148;51.454;13.862;2022-11-06T15:42:27;9.20;99.90
18047;DHT22;9148;51.454;13.862;2022-11-06T15:45:07;9.20;99.90
18047;DHT22;9148;51.454;13.862;2022-11-06T15:48:04;9.10;99.90
18047;DHT22;9148;51.454;13.862;2022-11-06T15:50:33;8.90;99.90
18047;DHT22;9148;51.454;13.862;2022-11-06T15:55:41;8.70;99.90
18047;DHT22;9148;51.454;13.862;2022-11-06T16:00:44;8.50;99.90
18047;DHT22;9148;51.454;13.862;2022-11-06T16:03:16;8.80;99.90
18047;DHT22;9148;51.454;13.862;2022-11-06T16:05:43;8.40;99.90
18047;DHT22;9148;51.454;13.862;2022-11-06T16:08:15;8.60;99.90
18047;DHT22;9148;51.454;13.862;2022-11-06T16:10:44;8.20;99.90
18047;DHT22;9148;51.454;13.862;2022-11-06T16:13:14;8.60;99.90
18047;DHT22;9148;51.454;13.862;2022-11-06T16:18:29;8.30;99.90
18047;DHT22;9148;51.454;13.862;2022-11-06T16:24:14;7.80;99.90
18047;DHT22;9148;51.454;13.862;2022-11-06T16:26:48;7.70;99.90
18047;DHT22;9148;51.454;13.862;2022-11-06T16:29:26;7.60;99.90
18047;DHT22;9148;51.454;13.862;2022-11-06T16:32:07;7.50;99.90
18047;DHT22;9148;51.454;13.862;2022-11-06T16:34:40;7.90;99.90
18047;DHT22;9148;51.454;13.862;2022-11-06T16:39:52;7.30;99.90
18047;DHT22;9148;51.454;13.862;2022-11-06T16:44:48;7.00;99.90
18047;DHT22;9148;51.454;13.862;2022-11-06T16:47:19;7.10;99.90
18047;DHT22;9148;51.454;13.862;2022-11-06T16:49:57;7.00;99.90
18047;DHT22;9148;51.454;13.862;2022-11-06T16:52:31;6.90;99.90
18047;DHT22;9148;51.454;13.862;2022-11-06T16:55:02;6.80;99.90
18047;DHT22;9148;51.454;13.862;2022-11-06T16:57:42;6.70;99.90
18047;DHT22;9148;51.454;13.862;2022-11-06T17:02:52;6.60;99.90
18047;DHT22;9148;51.454;13.862;2022-11-06T17:05:53;6.60;99.90
18047;DHT22;9148;51.454;13.862;2022-11-06T17:10:59;6.50;99.90
18047;DHT22;9148;51.454;13.862;2022-11-06T17:13:41;6.40;99.90
18047;DHT22;9148;51.454;13.862;2022-11-06T17:16:14;6.40;99.90
18047;DHT22;9148;51.454;13.862;2022-11-06T17:18:41;6.30;99.90
18047;DHT22;9148;51.454;13.862;2022-11-06T17:21:18;6.30;99.90
18047;DHT22;9148;51.454;13.862;2022-11-06T17:23:51;6.30;99.90
18047;DHT22;9148;51.454;13.862;2022-11-06T17:26:26;6.70;99.90
18047;DHT22;9148;51.454;13.862;2022-11-06T17:28:57;6.20;99.90
18047;DHT22;9148;51.454;13.862;2022-11-06T17:31:24;6.10;99.90
18047;DHT22;9148;51.454;13.862;2022-11-06T17:33:51;6.10;99.90
18047;DHT22;9148;51.454;13.862;2022-11-06T17:36:22;6.00;99.90
18047;DHT22;9148;51.454;13.862;2022-11-06T17:38:53;6.00;99.90
18047;DHT22;9148;51.454;13.862;2022-11-06T17:41:19;6.00;99.90
18047;DHT22;9148;51.454;13.862;2022-11-06T17:43:59;5.90;99.90
18047;DHT22;9148;51.454;13.862;2022-11-06T17:46:42;5.80;99.90
18047;DHT22;9148;51.454;13.862;2022-11-06T17:49:11;5.80;99.90
18047;DHT22;9148;51.454;13.862;2022-11-06T17:51:38;5.80;99.90
18047;DHT22;9148;51.454;13.862;2022-11-06T17:54:29;5.80;99.90
18047;DHT22;9148;51.454;13.862;2022-11-06T17:56:59;5.70;99.90
18047;DHT22;9148;51.454;13.862;2022-11-06T17:59:25;5.60;99.90
18047;DHT22;9148;51.454;13.862;2022-11-06T18:01:52;5.50;99.90
18047;DHT22;9148;51.454;13.862;2022-11-06T18:04:19;5.60;99.90
18047;DHT22;9148;51.454;13.862;2022-11-06T18:06:47;5.60;99.90
18047;DHT22;9148;51.454;13.862;2022-11-06T18:09:14;5.50;99.90
18047;DHT22;9148;51.454;13.862;2022-11-06T18:11:41;5.40;99.90
18047;DHT22;9148;51.454;13.862;2022-11-06T18:14:07;5.30;99.90
18047;DHT22;9148;51.454;13.862;2022-11-06T18:16:36;5.30;99.90
18047;DHT22;9148;51.454;13.862;2022-11-06T18:19:08;5.20;99.90
18047;DHT22;9148;51.454;13.862;2022-11-06T18:21:35;5.10;99.90
18047;DHT22;9148;51.454;13.862;2022-11-06T18:24:01;5.10;99.90
18047;DHT22;9148;51.454;13.862;2022-11-06T18:26:27;5.00;99.90
18047;DHT22;9148;51.454;13.862;2022-11-06T18:28:53;5.00;99.90
18047;DHT22;9148;51.454;13.862;2022-11-06T18:31:19;5.30;99.90
18047;DHT22;9148;51.454;13.862;2022-11-06T18:33:45;5.00;99.90
18047;DHT22;9148;51.454;13.862;2022-11-06T18:36:12;4.90;99.90
18047;DHT22;9148;51.454;13.862;2022-11-06T18:38:39;5.00;99.90
18047;DHT22;9148;51.454;13.862;2022-11-06T18:41:17;4.80;99.90
18047;DHT22;9148;51.454;13.862;2022-11-06T18:43:45;4.80;99.90
18047;DHT22;9148;51.454;13.862;2022-11-06T18:46:12;4.80;99.90
18047;DHT22;9148;51.454;13.862;2022-11-06T18:48:40;4.80;99.90
18047;DHT22;9148;51.454;13.862;2022-11-06T18:53:32;4.90;99.90
18047;DHT22;9148;51.454;13.862;2022-11-06T18:55:57;5.00;99.90
18047;DHT22;9148;51.454;13.862;2022-11-06T18:58:23;4.90;99.90
18047;DHT22;9148;51.454;13.862;2022-11-06T19:00:49;4.90;99.90